createdAt,value
2019-05-13T04:25:07.063Z,1.90
2019-05-13T04:27:37.383Z,1.80
2019-05-13T04:30:13.301Z,1.40
2019-05-13T04:32:44.392Z,1.90
2019-05-13T04:35:14.695Z,2.10
2019-05-13T04:37:44.977Z,1.80
2019-05-13T04:40:15.660Z,1.93
2019-05-13T04:42:46.474Z,1.80
2019-05-13T04:45:17.441Z,2.00
2019-05-13T04:47:48.360Z,1.40
2019-05-13T04:50:22.071Z,1.80
2019-05-13T04:52:52.599Z,2.00
2019-05-13T04:55:23.288Z,1.70
2019-05-13T04:57:53.676Z,1.33
2019-05-13T05:01:04.768Z,1.00
2019-05-13T05:03:45.705Z,1.40
2019-05-13T05:06:46.749Z,1.23
2019-05-13T05:10:13.295Z,1.20
2019-05-13T05:12:55.352Z,1.30
2019-05-13T05:16:08.275Z,1.40
2019-05-13T05:19:04.773Z,1.03
2019-05-13T05:21:42.262Z,1.60
2019-05-13T05:24:41.829Z,1.40
2019-05-13T05:27:43.699Z,1.10
2019-05-13T05:31:04.032Z,1.10
2019-05-13T05:33:56.187Z,1.30
2019-05-13T05:37:11.889Z,1.60
2019-05-13T05:39:42.774Z,1.30
2019-05-13T05:42:15.471Z,1.37
2019-05-13T05:44:47.008Z,1.33
2019-05-13T05:47:21.216Z,1.20
2019-05-13T05:49:53.168Z,1.27
2019-05-13T05:52:26.400Z,1.13
2019-05-13T05:54:58.675Z,1.07
2019-05-13T05:57:31.505Z,1.40
2019-05-13T06:00:02.746Z,1.40
2019-05-13T06:02:33.508Z,1.13
2019-05-13T06:05:04.902Z,1.27
2019-05-13T06:07:36.483Z,1.40
2019-05-13T06:10:08.031Z,1.23
2019-05-13T06:12:38.729Z,1.03
2019-05-13T06:15:09.250Z,1.37
2019-05-13T06:17:41.285Z,1.30
2019-05-13T06:20:13.402Z,1.23
2019-05-13T06:22:43.439Z,1.43
2019-05-13T06:25:14.677Z,1.17
2019-05-13T06:27:45.168Z,1.03
2019-05-13T06:30:15.486Z,1.30
2019-05-13T06:32:45.999Z,1.30
2019-05-13T06:35:16.309Z,1.30
2019-05-13T06:37:46.675Z,1.10
2019-05-13T06:40:17.017Z,1.10
2019-05-13T06:42:47.296Z,1.10
2019-05-13T06:45:17.606Z,1.43
2019-05-13T06:47:47.891Z,0.70
2019-05-13T06:50:18.208Z,1.40
2019-05-13T06:52:48.579Z,1.20
2019-05-13T06:55:21.293Z,1.10
2019-05-13T06:57:51.867Z,1.07
2019-05-13T07:00:23.367Z,1.43
2019-05-13T07:02:53.653Z,1.20
2019-05-13T07:05:23.965Z,1.80
2019-05-13T07:07:54.286Z,1.20
2019-05-13T07:10:24.558Z,1.00
2019-05-13T07:12:54.849Z,0.83
2019-05-13T07:15:25.108Z,0.90
2019-05-13T07:17:55.397Z,0.90
2019-05-13T07:20:25.648Z,0.97
2019-05-13T07:22:55.933Z,0.93
2019-05-13T07:25:27.297Z,1.10
2019-05-13T07:27:57.585Z,0.93
2019-05-13T07:30:42.070Z,1.13
2019-05-13T07:33:12.741Z,1.30
2019-05-13T07:35:45.357Z,1.30
2019-05-13T07:38:15.839Z,1.07
2019-05-13T07:40:46.265Z,1.13
2019-05-13T07:43:16.613Z,1.30
2019-05-13T07:45:46.882Z,1.00
2019-05-13T07:48:21.305Z,1.10
2019-05-13T07:50:56.745Z,1.00
2019-05-13T07:53:22.169Z,1.00
2019-05-13T07:55:54.047Z,1.00
2019-05-13T07:58:24.416Z,1.23
2019-05-13T08:00:54.706Z,1.07
2019-05-13T08:03:25.078Z,1.10
2019-05-13T08:05:55.288Z,0.90
2019-05-13T08:08:25.680Z,1.00
2019-05-13T08:10:55.943Z,1.23
2019-05-13T08:13:26.254Z,1.07
2019-05-13T08:15:56.609Z,1.03
2019-05-13T08:18:26.917Z,1.10
2019-05-13T08:20:57.210Z,0.97
2019-05-13T08:23:27.937Z,1.20
2019-05-13T08:25:58.186Z,1.13
2019-05-13T08:28:28.499Z,1.13
2019-05-13T08:30:58.780Z,1.00
2019-05-13T08:33:31.879Z,1.30
2019-05-13T08:36:01.594Z,1.30
2019-05-13T08:38:32.235Z,1.00
2019-05-13T08:41:02.475Z,0.97
2019-05-13T08:43:32.785Z,1.00
2019-05-13T08:46:04.036Z,1.10
2019-05-13T08:48:34.328Z,1.10
2019-05-13T08:51:04.585Z,1.23
2019-05-13T08:53:34.871Z,0.90
2019-05-13T08:56:05.155Z,1.40
2019-05-13T08:58:35.624Z,1.40
2019-05-13T09:01:05.916Z,1.20
2019-05-13T09:03:36.208Z,0.87
2019-05-13T09:06:06.514Z,1.20
2019-05-13T09:08:36.855Z,1.10
2019-05-13T09:11:07.114Z,1.00
2019-05-13T09:13:37.505Z,1.00
2019-05-13T09:16:07.891Z,1.20
2019-05-13T09:18:38.187Z,1.07
2019-05-13T09:21:08.433Z,1.00
2019-05-13T09:23:41.217Z,1.00
2019-05-13T09:26:11.876Z,0.80
2019-05-13T09:28:42.575Z,0.90
2019-05-13T09:31:12.872Z,0.90
2019-05-13T09:33:43.177Z,0.90
2019-05-13T09:36:13.460Z,0.90
2019-05-13T09:38:43.805Z,1.13
2019-05-13T09:41:14.082Z,1.00
2019-05-13T09:43:44.384Z,1.20
2019-05-13T09:46:14.660Z,1.10
2019-05-13T09:48:44.949Z,0.93
2019-05-13T09:51:15.246Z,1.13
2019-05-13T09:53:45.511Z,0.83
2019-05-13T09:56:15.790Z,0.90
2019-05-13T09:58:46.071Z,1.17
2019-05-13T10:01:16.368Z,0.90
2019-05-13T10:03:54.894Z,0.80
2019-05-13T10:06:18.836Z,1.00
2019-05-13T10:08:51.825Z,2.53
2019-05-13T10:11:22.056Z,2.07
2019-05-13T10:13:52.737Z,1.30
2019-05-13T10:16:23.522Z,1.17
2019-05-13T10:18:54.429Z,0.97
2019-05-13T10:21:25.145Z,0.90
2019-05-13T10:23:59.587Z,1.10
2019-05-13T10:26:32.384Z,0.83
2019-05-13T10:29:03.398Z,1.20
2019-05-13T10:31:34.110Z,1.00
2019-05-13T10:34:04.989Z,1.00
2019-05-13T10:36:35.915Z,1.00
2019-05-13T10:39:08.614Z,0.80
2019-05-13T10:41:42.036Z,0.83
2019-05-13T10:44:12.850Z,1.03
2019-05-13T10:46:44.673Z,0.70
2019-05-13T10:49:14.963Z,1.20
2019-05-13T10:51:45.759Z,1.40
2019-05-13T10:54:16.498Z,1.10
2019-05-13T10:56:47.755Z,0.80
2019-05-13T10:59:18.252Z,0.80
2019-05-13T11:01:48.953Z,1.27
2019-05-13T11:04:22.150Z,1.00
2019-05-13T11:06:54.158Z,0.87
2019-05-13T11:09:25.662Z,1.10
2019-05-13T11:11:56.248Z,1.13
2019-05-13T11:14:27.486Z,1.10
2019-05-13T11:16:58.109Z,1.13
2019-05-13T11:19:34.340Z,1.63
2019-05-13T11:22:02.705Z,1.47
2019-05-13T11:24:33.421Z,1.30
2019-05-13T11:27:05.603Z,1.25
2019-05-13T11:29:36.021Z,1.10
2019-05-13T11:32:06.684Z,1.00
2019-05-13T11:34:37.050Z,1.37
2019-05-13T11:37:07.427Z,1.10
2019-05-13T11:39:37.729Z,1.30
2019-05-13T11:42:08.101Z,1.30
2019-05-13T11:44:39.152Z,1.35
2019-05-13T11:47:12.755Z,1.15
2019-05-13T11:49:44.023Z,1.05
2019-05-13T11:52:14.659Z,1.30
2019-05-13T11:54:45.766Z,1.77
2019-05-13T11:57:16.199Z,1.37
2019-05-13T11:59:46.483Z,1.20
2019-05-13T12:02:16.873Z,1.20
2019-05-13T12:04:47.174Z,1.22
2019-05-13T12:07:18.480Z,1.10
2019-05-13T12:09:48.784Z,1.15
2019-05-13T12:12:19.127Z,1.20
2019-05-13T12:15:20.253Z,1.10
2019-05-13T12:17:24.308Z,1.20
2019-05-13T12:19:54.614Z,1.22
2019-05-13T12:22:24.861Z,1.20
2019-05-13T12:24:55.165Z,1.40
2019-05-13T12:27:25.569Z,1.27
2019-05-13T12:29:55.922Z,1.35
2019-05-13T12:32:26.201Z,1.40
2019-05-13T12:34:56.610Z,1.50
2019-05-13T12:37:27.009Z,1.40
2019-05-13T12:39:59.212Z,1.40
2019-05-13T12:42:33.867Z,1.22
2019-05-13T12:45:09.912Z,1.20
2019-05-13T12:47:36.573Z,1.25
2019-05-13T12:50:07.387Z,1.37
2019-05-13T12:52:38.226Z,1.30
2019-05-13T12:55:13.785Z,1.20
2019-05-13T12:57:40.828Z,1.37
2019-05-13T13:00:13.168Z,1.30
2019-05-13T13:02:50.275Z,1.60
2019-05-13T13:05:20.488Z,1.30
2019-05-13T13:08:13.832Z,1.45
2019-05-13T13:10:23.102Z,1.50
2019-05-13T13:12:58.276Z,1.30
2019-05-13T13:15:41.718Z,1.50
2019-05-13T13:17:59.396Z,1.67
2019-05-13T13:20:32.664Z,1.60
2019-05-13T13:23:04.403Z,1.45
2019-05-13T13:25:34.049Z,1.57
2019-05-13T13:28:11.444Z,1.35
2019-05-13T13:30:37.924Z,1.60
2019-05-13T13:33:08.260Z,1.50
2019-05-13T13:35:44.078Z,1.80
2019-05-13T13:38:11.764Z,1.50
2019-05-13T13:40:45.983Z,1.47
2019-05-13T13:43:16.469Z,1.60
2019-05-13T13:46:07.680Z,1.30
2019-05-13T13:48:28.292Z,1.50
2019-05-13T13:50:58.799Z,1.37
2019-05-13T13:53:29.441Z,1.50
2019-05-13T13:56:02.263Z,1.42
2019-05-13T13:58:36.376Z,1.70
2019-05-13T14:01:18.164Z,1.40
2019-05-13T14:03:46.136Z,1.45
2019-05-13T14:07:22.652Z,1.32
2019-05-13T14:09:02.392Z,1.30
2019-05-13T14:11:44.290Z,1.30
2019-05-13T14:14:15.399Z,1.40
2019-05-13T14:16:51.969Z,1.50
2019-05-13T14:19:42.912Z,1.60
2019-05-13T14:22:15.848Z,1.47
2019-05-13T14:24:47.997Z,1.30
2019-05-13T14:27:19.410Z,1.72
2019-05-13T14:29:52.636Z,1.40
2019-05-13T14:32:26.554Z,1.60
2019-05-13T14:34:57.592Z,1.30
2019-05-13T14:37:28.759Z,1.35
2019-05-13T14:40:01.951Z,1.37
2019-05-13T14:42:33.261Z,1.60
2019-05-13T15:28:22.044Z,1.70
2019-05-13T15:30:53.256Z,1.30
2019-05-13T15:33:27.963Z,1.40
2019-05-13T15:36:01.258Z,1.40
2019-05-13T15:38:32.780Z,1.52
2019-05-13T15:41:06.811Z,1.47
2019-05-13T15:43:38.587Z,1.80
2019-05-13T15:46:12.342Z,1.70
2019-05-13T15:48:46.084Z,1.60
2019-05-13T15:51:22.106Z,1.98
2019-05-13T15:53:53.517Z,1.90
2019-05-13T15:56:24.695Z,2.00
2019-05-13T15:58:57.863Z,2.10
2019-05-13T16:01:32.131Z,1.80
2019-05-13T16:04:02.858Z,2.12
2019-05-13T16:06:35.337Z,1.85
2019-05-13T16:09:11.596Z,1.62
2019-05-13T16:11:42.162Z,1.50
2019-05-13T16:14:13.113Z,1.40
2019-05-13T16:16:44.248Z,1.60
2019-05-13T16:19:15.189Z,1.50
2019-05-13T16:21:46.877Z,1.32
2019-05-13T16:24:20.877Z,1.80
2019-05-13T16:26:59.270Z,1.72
2019-05-13T16:29:33.912Z,1.70
2019-05-13T16:32:14.965Z,1.37
2019-05-13T16:34:47.724Z,1.50
2019-05-13T16:37:18.564Z,1.45
2019-05-13T16:39:51.837Z,1.40
2019-05-13T16:42:24.893Z,1.43
2019-05-13T16:44:56.369Z,1.40
2019-05-13T16:47:26.690Z,1.07
2019-05-13T16:49:57.089Z,1.37
2019-05-13T16:52:27.352Z,1.10
2019-05-13T16:54:57.663Z,1.20
2019-05-13T16:57:27.973Z,1.23
2019-05-13T16:59:58.328Z,1.30
2019-05-13T17:02:29.264Z,1.30
2019-05-13T17:05:01.446Z,1.30
2019-05-13T17:07:33.302Z,1.57
2019-05-13T17:10:09.420Z,1.30
2019-05-13T17:12:42.912Z,1.30
2019-05-13T17:15:17.020Z,1.40
2019-05-13T17:17:51.474Z,1.33
2019-05-13T17:20:26.780Z,1.27
2019-05-13T17:22:57.681Z,1.30
2019-05-13T17:25:28.470Z,1.40
2019-05-13T17:28:02.485Z,1.70
2019-05-13T17:30:34.929Z,1.40
2019-05-13T17:33:05.872Z,2.40
2019-05-13T17:35:36.959Z,1.77
2019-05-13T17:38:08.662Z,1.43
2019-05-13T17:40:42.041Z,1.50
2019-05-13T17:43:13.856Z,1.57
2019-05-13T17:45:45.164Z,1.33
2019-05-13T17:48:26.808Z,1.27
2019-05-13T17:50:51.962Z,1.37
2019-05-13T17:53:22.751Z,1.30
2019-05-13T17:55:55.590Z,1.50
2019-05-13T17:58:26.582Z,1.20
2019-05-13T18:00:58.537Z,1.50
2019-05-13T18:03:36.359Z,1.33
2019-05-13T18:06:08.762Z,1.50
2019-05-13T18:08:41.207Z,1.60
2019-05-13T18:11:12.550Z,1.50
2019-05-13T18:13:45.161Z,1.50
2019-05-13T18:16:23.697Z,1.40
2019-05-13T18:18:56.536Z,1.67
2019-05-13T18:21:32.077Z,1.10
2019-05-13T18:24:05.061Z,1.60
2019-05-13T18:26:36.208Z,1.30
2019-05-13T18:29:11.952Z,1.40
2019-05-13T18:31:42.431Z,1.40
2019-05-13T18:34:13.047Z,1.50
2019-05-13T18:36:43.493Z,1.40
2019-05-13T18:39:14.089Z,1.23
2019-05-13T18:41:46.153Z,1.50
2019-05-13T18:44:16.892Z,1.67
2019-05-13T18:46:48.079Z,1.70
2019-05-13T18:49:18.411Z,1.63
2019-05-13T18:51:49.007Z,1.60
2019-05-13T18:54:20.331Z,1.50
2019-05-13T18:56:52.182Z,1.60
2019-05-13T18:59:25.941Z,1.43
2019-05-13T19:02:01.857Z,1.50
2019-05-13T19:04:34.166Z,1.30
2019-05-13T19:07:07.771Z,1.73
2019-05-13T19:09:38.014Z,1.80
2019-05-13T19:12:08.329Z,2.03
2019-05-13T19:14:41.043Z,2.30
2019-05-13T19:17:12.304Z,2.10
2019-05-13T19:19:43.363Z,2.20
2019-05-13T19:22:14.079Z,1.77
2019-05-13T19:24:45.093Z,2.03
2019-05-13T19:27:16.002Z,2.10
2019-05-13T19:29:48.264Z,2.00
2019-05-13T19:32:21.691Z,2.07
2019-05-13T19:34:52.777Z,2.00
2019-05-13T19:37:23.730Z,1.80
2019-05-13T19:39:55.550Z,1.80
2019-05-13T19:42:26.738Z,2.53
2019-05-13T19:44:57.332Z,1.50
2019-05-13T19:47:28.186Z,1.83
2019-05-13T19:50:01.355Z,1.80
2019-05-13T19:52:32.079Z,1.63
2019-05-13T19:55:04.127Z,2.40
2019-05-13T19:57:35.127Z,1.60
2019-05-13T20:00:09.917Z,2.00
2019-05-13T20:02:38.839Z,2.30
2019-05-13T20:05:09.473Z,2.70
2019-05-13T20:07:41.987Z,1.90
2019-05-13T20:10:12.130Z,1.80
2019-05-13T20:12:42.496Z,1.90
2019-05-13T20:15:13.021Z,2.30
2019-05-13T20:17:43.752Z,2.10
2019-05-13T20:20:14.119Z,2.13
2019-05-13T20:22:47.003Z,2.10
2019-05-13T20:25:17.899Z,1.90
2019-05-13T20:27:48.260Z,1.50
2019-05-13T20:30:18.649Z,1.60
2019-05-13T20:32:51.343Z,1.70
2019-05-13T20:35:21.937Z,1.50
2019-05-13T20:37:52.355Z,1.80
2019-05-13T20:40:22.973Z,1.90
2019-05-13T20:42:53.644Z,1.80
2019-05-13T20:45:24.216Z,1.60
2019-05-13T20:47:54.628Z,1.87
2019-05-13T20:50:25.563Z,1.77
2019-05-13T20:52:56.129Z,1.80
2019-05-13T20:55:27.699Z,1.70
2019-05-13T20:57:58.092Z,1.87
2019-05-13T21:00:28.597Z,1.53
2019-05-13T21:02:59.017Z,1.60
2019-05-13T21:05:29.445Z,1.60
2019-05-13T21:08:01.651Z,1.50
2019-05-13T21:10:31.780Z,1.70
2019-05-13T21:13:02.510Z,1.40
2019-05-13T21:15:32.897Z,1.50
2019-05-13T21:18:03.251Z,1.83
2019-05-13T21:20:33.538Z,1.90
2019-05-13T21:23:04.189Z,1.97
2019-05-13T21:25:34.493Z,1.80
2019-05-13T21:28:04.824Z,1.70
2019-05-13T21:30:35.116Z,1.70
2019-05-13T21:33:05.455Z,1.90
2019-05-13T21:35:35.744Z,1.63
2019-05-13T21:38:06.081Z,1.80
2019-05-13T21:40:36.349Z,1.57
2019-05-13T21:43:06.664Z,1.97
2019-05-13T21:45:36.980Z,1.70
2019-05-13T21:48:08.312Z,1.60
2019-05-13T21:50:41.030Z,1.90
2019-05-13T21:53:12.433Z,1.70
